Terminal Aerodrome Forecast
Issued by NWS Louisville, KY

Home | Current Version | Previous Version | Text Only | Print | Product List | Glossary On
Versions: 1 2 3 4 5 6 7 8 9 10 11 12 13 14 15 16 17 18 19
000
FTUS43 KLMK 080500
TAFSDF
TAF
KSDF 080527Z 0806/0912 21008KT P6SM VCSH BKN015
     FM080700 21006KT 6SM -SHRA BKN012
      TEMPO 0807/0811 3SM SHRA BKN007
     FM081300 20007KT P6SM BKN023
     FM081800 22009KT P6SM BKN035
     FM082300 20008KT P6SM BKN200
     FM090600 20011KT P6SM BKN050=

USA.gov is the U.S. government's official web portal to all federal, state and local government web resources and services.